Ajax, Kentucky
Current Conditions -  °F | °C
As of 11:53 AM on Monday 22 Dec 2014 (Local Time) from KJKL Reporting Station
Broken Clouds Broken Clouds  
Wind Chill: 10°   Ceiling: 4000
Heat Index: 10°   Visibility: 10mi
Dew Point:   Wind: 3mph
Humidity: 61%   Direction: NA
Pressure: 29.96"   Gusts: NA
Location:  37.3318°N, 83.1697°W
Report Text: KJKL 221653Z AUTO VRB03KT 10SM BKN040 10/03 A2996 RMK AO2 SLP146 T01000028
Loading
Personal Weather Stations






























Interactive Weather Map New forecast layout! Learn more

10-Day Weather Forecast

Advertisements
Track Severe Weather on mobile